バルセロナ の空港の天気 - METARとTAF

バルセロナ・エル・プラット国際空港 ( LEBL / BCN ) - スペイン バルセロナ
飛行場実況気象(Metar)
観測時間03/28 19:30 CEST (03/28 17:30 UTC)
風向・風速南南西 3m/s
視程10km以上
天気現象
なし
気温15℃
湿度77%
気圧1026hPa
METARLEBL 281730Z 21006KT CAVOK 15/11 Q1026 NOSIG
過去の天気等 Google飛行場航空写真 Wunderground天気予報

過去48時間のMETAR

飛行場予報(TAF)
発表時間: 3/28 19:00 CEST (3/28 17:00 UTC)
予報対象時間: 28日20時 CEST ~ 29日20時 CEST
風向・風速南南西 5m/s
視程10km以上
少しの雲 雲底高度 910m
28日20時 CEST ~ 28日23時 CEST に徐々に
風向・風速不定 2m/s
29日4時 CEST ~ 29日12時 CEST に一時的に
風向・風速北北西 5m/s
29日12時 CEST ~ 29日14時 CEST に徐々に
風向・風速南西 5m/s
TAF LEBL 281700Z 2818/2918 20010KT 9999 FEW030 TX19/2913Z TN09/2906Z
BECMG 2818/2821 VRB04KT
TEMPO 2902/2910 34009KT
BECMG 2910/2912 22010KT